Time;durP1;ratioP1;P1;durP2;ratioP2;P2;SDS_P1;SDS_P2;PMS_P1;PMS_P2;Temp;Humidity;BMP_temperature;BMP_pressure;BME280_temperature;BME280_humidity;BME280_pressure;Samples;Min_cycle;Max_cycle;Signal;HPM_P1;HPM_P2
2021/05/29 00:01:28;;;;;;;2.70;0.88;;;11.70;99.90;;;-146.41;100.00;57768.22;5123375;27;20039;-67
2021/05/29 00:03:56;;;;;;;5.47;1.30;;;11.60;99.90;;;-146.41;100.00;57768.22;5132582;27;20078;-67
2021/05/29 00:06:23;;;;;;;4.00;1.00;;;11.40;99.90;;;-146.41;100.00;57768.22;5127731;27;20054;-67
2021/05/29 00:08:50;;;;;;;2.15;0.98;;;11.40;99.90;;;-146.41;100.00;57768.22;5110100;27;21855;-67
2021/05/29 00:11:17;;;;;;;3.22;1.08;;;11.40;99.90;;;-146.41;100.00;57768.22;5131779;27;20100;-67
2021/05/29 00:13:44;;;;;;;4.32;1.30;;;11.30;99.90;;;-146.41;100.00;57768.22;5130279;27;20039;-67
2021/05/29 00:16:12;;;;;;;5.70;1.30;;;11.10;99.90;;;-146.41;100.00;57768.22;5129840;27;20504;-67
2021/05/29 00:18:39;;;;;;;10.48;1.50;;;11.00;99.90;;;-146.41;100.00;57768.22;5131424;27;20036;-67
2021/05/29 00:21:07;;;;;;;3.15;1.10;;;10.90;99.90;;;-146.41;100.00;57768.22;5131043;27;20058;-67
2021/05/29 00:23:34;;;;;;;3.70;1.15;;;10.90;99.90;;;-146.41;100.00;57768.22;5131262;27;20145;-67
2021/05/29 00:26:02;;;;;;;3.13;1.17;;;10.80;99.90;;;-146.41;100.00;57768.22;5129127;27;20039;-67
2021/05/29 00:28:29;;;;;;;7.88;1.73;;;10.80;99.90;;;-146.41;100.00;57768.22;5129303;27;20084;-67
2021/05/29 00:30:56;;;;;;;3.75;1.30;;;10.80;99.90;;;-146.41;100.00;57768.22;5130689;27;20043;-67
2021/05/29 00:33:23;;;;;;;5.40;1.30;;;10.70;99.90;;;-146.41;100.00;57768.22;5128184;27;20184;-67
2021/05/29 00:35:50;;;;;;;3.80;1.20;;;10.60;99.90;;;-146.41;100.00;57768.22;5127006;27;20040;-67
2021/05/29 00:38:17;;;;;;;5.53;1.27;;;10.50;99.90;;;-146.41;100.00;57768.22;5131475;27;20496;-67
2021/05/29 00:40:44;;;;;;;3.63;1.30;;;10.50;99.90;;;-146.41;100.00;57768.22;5111562;27;20091;-67
2021/05/29 00:43:11;;;;;;;5.38;1.33;;;10.40;99.90;;;-146.41;100.00;57768.22;5112739;27;20046;-67
2021/05/29 00:45:38;;;;;;;3.05;1.33;;;10.40;99.90;;;-146.41;100.00;57768.22;5111858;27;20047;-67
2021/05/29 00:48:06;;;;;;;5.53;1.60;;;10.40;99.90;;;-146.41;100.00;57768.22;5124589;27;20407;-67
2021/05/29 00:50:35;;;;;;;2.88;1.13;;;10.40;99.90;;;-146.41;100.00;57768.22;5128028;27;20389;-67
2021/05/29 00:53:02;;;;;;;3.08;1.35;;;10.30;99.90;;;-146.41;100.00;57768.22;5103504;27;20039;-67
2021/05/29 00:55:29;;;;;;;2.03;1.10;;;10.30;99.90;;;-146.41;100.00;57768.22;5129806;27;20039;-67
2021/05/29 00:57:56;;;;;;;3.58;1.17;;;10.10;99.90;;;-146.41;100.00;57768.22;5130231;27;20500;-67
2021/05/29 01:00:24;;;;;;;4.05;1.55;;;10.00;99.90;;;-146.41;100.00;57768.22;5128000;27;20104;-67
2021/05/29 01:02:52;;;;;;;3.47;1.40;;;10.00;99.90;;;-146.41;100.00;57768.22;5129922;27;20051;-67
2021/05/29 01:05:21;;;;;;;3.25;1.58;;;10.00;99.90;;;-146.41;100.00;57768.22;5130775;27;20442;-67
2021/05/29 01:07:51;;;;;;;2.40;1.33;;;9.90;99.90;;;-146.41;100.00;57768.22;5129687;27;20492;-67
2021/05/29 01:10:21;;;;;;;4.32;1.42;;;9.80;99.90;;;-146.41;100.00;57768.22;5098822;28;20063;-67
2021/05/29 01:12:52;;;;;;;5.75;1.65;;;9.70;99.90;;;-146.41;100.00;57768.22;5129164;27;20035;-67
2021/05/29 01:15:20;;;;;;;7.47;1.52;;;9.60;99.90;;;-146.41;100.00;57768.22;5090665;28;20043;-67
2021/05/29 01:17:48;;;;;;;8.32;1.60;;;9.50;99.90;;;-146.41;100.00;57768.22;5113715;27;20039;-67
2021/05/29 01:20:16;;;;;;;4.05;1.20;;;9.50;99.90;;;-146.41;100.00;57768.22;5112657;27;20107;-67
2021/05/29 01:22:50;;;;;;;5.35;1.60;;;9.50;99.90;;;-146.41;100.00;57768.22;5126532;27;20103;-67
2021/05/29 01:25:32;;;;;;;4.85;1.63;;;9.50;99.90;;;-146.41;100.00;57768.22;5111951;27;20035;-67
2021/05/29 01:28:10;;;;;;;4.55;1.25;;;9.40;99.90;;;-146.41;100.00;57768.22;5127057;27;20042;-67
2021/05/29 01:30:49;;;;;;;3.95;1.52;;;9.30;99.90;;;-146.41;100.00;57768.22;5112644;27;20418;-67
2021/05/29 01:33:23;;;;;;;4.53;1.35;;;9.20;99.90;;;-146.41;100.00;57768.22;5119228;27;20035;-67
2021/05/29 01:35:53;;;;;;;3.88;1.45;;;9.20;99.90;;;-146.41;100.00;57768.22;5108403;27;20087;-67
2021/05/29 01:38:22;;;;;;;3.67;1.35;;;9.20;99.90;;;-146.41;100.00;57768.22;5111964;28;20110;-67
2021/05/29 01:40:50;;;;;;;5.38;1.50;;;9.20;99.90;;;-146.41;100.00;57768.22;5129080;27;20086;-67
2021/05/29 01:43:19;;;;;;;3.50;1.60;;;9.10;99.90;;;-146.41;100.00;57768.22;5130119;27;20078;-67
2021/05/29 01:45:46;;;;;;;3.05;1.30;;;9.10;99.90;;;-146.41;100.00;57768.22;5110720;28;20051;-67
2021/05/29 01:48:17;;;;;;;6.20;1.70;;;9.10;99.90;;;-146.41;100.00;57768.22;5126006;27;20043;-67
2021/05/29 01:50:48;;;;;;;3.90;1.60;;;9.20;99.90;;;-146.41;100.00;57768.22;5125171;28;20073;-67
2021/05/29 01:53:20;;;;;;;4.90;1.50;;;9.20;99.90;;;-146.41;100.00;57768.22;5130319;28;20043;-67
2021/05/29 01:55:47;;;;;;;4.25;1.88;;;9.10;99.90;;;-146.41;100.00;57768.22;5128209;28;20047;-67
2021/05/29 01:58:16;;;;;;;4.18;1.52;;;9.10;99.90;;;-146.41;100.00;57768.22;5129565;28;20096;-67
2021/05/29 02:00:43;;;;;;;4.55;1.60;;;9.00;99.90;;;-146.41;100.00;57768.22;5124383;28;20096;-67
2021/05/29 02:03:10;;;;;;;3.67;1.65;;;9.10;99.90;;;-146.41;100.00;57768.22;5110567;28;20039;-67
2021/05/29 02:05:38;;;;;;;5.85;1.30;;;9.20;99.90;;;-146.41;100.00;57768.22;5128385;28;20047;-67
2021/05/29 02:08:09;;;;;;;6.55;1.52;;;9.30;99.90;;;-146.41;100.00;57768.22;5110624;28;20450;-67
2021/05/29 02:10:41;;;;;;;11.55;1.67;;;9.40;99.90;;;-146.41;100.00;57768.22;5108783;28;20047;-67
2021/05/29 02:13:31;;;;;;;7.50;1.70;;;9.30;99.90;;;-146.41;100.00;57768.22;5110789;28;20046;-67
2021/05/29 02:16:00;;;;;;;6.05;1.60;;;9.20;99.90;;;-146.41;100.00;57768.22;5109644;28;20035;-67
2021/05/29 02:18:27;;;;;;;3.97;1.65;;;9.10;99.90;;;-146.41;100.00;57768.22;5128551;28;20043;-67
2021/05/29 02:21:02;;;;;;;4.80;1.73;;;8.90;99.90;;;-146.41;100.00;57768.22;5129898;28;20035;-67
2021/05/29 02:23:35;;;;;;;7.60;1.45;;;8.90;99.90;;;-146.41;100.00;57768.22;5114548;27;20043;-67
2021/05/29 02:26:11;;;;;;;5.90;1.75;;;9.00;99.90;;;-146.41;100.00;57768.22;5129114;27;20089;-67
2021/05/29 02:28:43;;;;;;;4.35;1.77;;;9.00;99.90;;;-146.41;100.00;57768.22;5119570;27;20116;-67
2021/05/29 02:31:12;;;;;;;5.07;1.55;;;8.90;99.90;;;-146.41;100.00;57768.22;5130319;27;20108;-67
2021/05/29 02:33:41;;;;;;;3.65;1.98;;;8.90;99.90;;;-146.41;100.00;57768.22;5100934;27;20451;-67
2021/05/29 02:36:09;;;;;;;5.68;1.98;;;8.80;99.90;;;-146.41;100.00;57768.22;5130199;27;20092;-67
2021/05/29 02:38:38;;;;;;;4.32;1.95;;;8.80;99.90;;;-146.41;100.00;57768.22;5132474;27;20042;-67
2021/05/29 02:41:09;;;;;;;3.25;1.77;;;8.80;99.90;;;-146.41;100.00;57768.22;5115196;27;20046;-67
2021/05/29 02:43:38;;;;;;;4.93;1.75;;;8.70;99.90;;;-146.41;100.00;57768.22;5133087;27;20039;-67
2021/05/29 02:46:07;;;;;;;7.03;2.28;;;8.60;99.90;;;-146.41;100.00;57768.22;5129791;27;20062;-67
2021/05/29 02:48:35;;;;;;;5.18;2.05;;;8.50;99.90;;;-146.41;100.00;57768.22;5133374;27;20039;-67
2021/05/29 02:51:02;;;;;;;7.63;2.30;;;8.40;99.90;;;-146.41;100.00;57768.22;5132321;27;20047;-67
2021/05/29 02:53:29;;;;;;;7.22;2.13;;;8.30;99.90;;;-146.41;100.00;57768.22;5132845;27;20039;-67
2021/05/29 02:55:57;;;;;;;5.80;1.65;;;8.30;99.90;;;-146.41;100.00;57768.22;5116679;27;20038;-67
2021/05/29 02:58:24;;;;;;;3.83;1.70;;;8.20;99.90;;;-146.41;100.00;57768.22;5133059;27;20043;-67
2021/05/29 03:00:51;;;;;;;3.83;2.08;;;8.20;99.90;;;-146.41;100.00;57768.22;5131388;27;20039;-67
2021/05/29 03:03:18;;;;;;;7.70;1.88;;;8.10;99.90;;;-146.41;100.00;57768.22;5131418;27;20039;-67
2021/05/29 03:05:47;;;;;;;4.80;2.75;;;8.00;99.90;;;-146.41;100.00;57768.22;5131781;27;20039;-67
2021/05/29 03:08:16;;;;;;;6.60;2.40;;;8.00;99.90;;;-146.41;100.00;57768.22;5113735;27;20060;-67
2021/05/29 03:10:45;;;;;;;5.53;2.20;;;8.00;99.90;;;-146.41;100.00;57768.22;5114391;27;20394;-67
2021/05/29 03:13:13;;;;;;;4.82;2.50;;;7.90;99.90;;;-146.41;100.00;57768.22;5108942;27;20378;-67
2021/05/29 03:15:44;;;;;;;5.22;2.42;;;7.90;99.90;;;-146.41;100.00;57768.22;5131486;27;20031;-67
2021/05/29 03:18:11;;;;;;;7.78;2.83;;;7.80;99.90;;;-146.41;100.00;57768.22;5133521;27;20042;-67
2021/05/29 03:20:38;;;;;;;6.80;2.55;;;7.70;99.90;;;-146.41;100.00;57768.22;5129969;27;20043;-67
2021/05/29 03:23:06;;;;;;;5.03;2.20;;;7.60;99.90;;;-146.41;100.00;57768.22;5132655;27;20035;-67
2021/05/29 03:25:33;;;;;;;8.95;2.65;;;7.60;99.90;;;-146.41;100.00;57768.22;5130456;27;20051;-67
2021/05/29 03:28:01;;;;;;;3.85;2.10;;;7.60;99.90;;;-146.41;100.00;57768.22;5129694;27;20449;-67
2021/05/29 03:30:30;;;;;;;6.72;2.22;;;7.60;99.90;;;-146.41;100.00;57768.22;5119539;27;20039;-67
2021/05/29 03:32:58;;;;;;;5.43;2.30;;;7.60;99.90;;;-146.41;100.00;57768.22;5096363;27;20047;-67
2021/05/29 03:35:26;;;;;;;7.88;2.40;;;7.40;99.90;;;-146.41;100.00;57768.22;5130629;27;20114;-67
2021/05/29 03:37:54;;;;;;;5.75;2.30;;;7.30;99.90;;;-146.41;100.00;57768.22;5113442;27;20369;-67
2021/05/29 03:40:22;;;;;;;7.10;3.08;;;7.30;99.90;;;-146.41;100.00;57768.22;5110215;28;20058;-67
2021/05/29 03:42:50;;;;;;;7.97;2.65;;;7.30;99.90;;;-146.41;100.00;57768.22;5112438;27;20075;-67
2021/05/29 03:45:19;;;;;;;6.35;2.80;;;7.30;99.90;;;-146.41;100.00;57768.22;5114648;27;20035;-67
2021/05/29 03:47:47;;;;;;;5.40;2.45;;;7.40;99.90;;;-146.41;100.00;57768.22;5130834;27;20062;-67
2021/05/29 03:50:22;;;;;;;5.55;2.63;;;7.50;99.90;;;-146.41;100.00;57768.22;5114040;27;20104;-67
2021/05/29 03:52:49;;;;;;;5.85;2.47;;;7.50;99.90;;;-146.41;100.00;57768.22;5114032;27;20435;-68
2021/05/29 03:55:18;;;;;;;5.68;2.75;;;7.50;99.90;;;-146.41;100.00;57768.22;5131669;27;20053;-67
2021/05/29 03:57:46;;;;;;;7.85;2.90;;;7.50;99.90;;;-146.41;100.00;57768.22;5130075;27;20032;-67
2021/05/29 04:00:19;;;;;;;7.20;2.50;;;7.40;99.90;;;-146.41;100.00;57768.22;5131969;27;20041;-67
2021/05/29 04:02:47;;;;;;;8.27;2.67;;;7.60;99.90;;;-146.41;100.00;57768.22;5127444;27;20039;-67
2021/05/29 04:05:16;;;;;;;7.72;2.72;;;7.50;99.90;;;-146.41;100.00;57768.22;5131617;27;20088;-67
2021/05/29 04:07:43;;;;;;;5.18;2.72;;;7.40;99.90;;;-146.41;100.00;57768.22;5112047;27;20118;-67
2021/05/29 04:10:14;;;;;;;5.78;2.38;;;7.50;99.90;;;-146.41;100.00;57768.22;5087978;27;20058;-67
2021/05/29 04:12:41;;;;;;;7.25;2.42;;;7.50;99.90;;;-146.41;100.00;57768.22;5132248;27;20059;-67
2021/05/29 04:15:10;;;;;;;5.00;2.28;;;7.70;99.90;;;-146.41;100.00;57768.22;5131648;27;20077;-67
2021/05/29 04:17:38;;;;;;;7.05;3.00;;;7.70;99.90;;;-146.41;100.00;57768.22;5130227;27;20557;-67
2021/05/29 04:20:07;;;;;;;5.88;2.35;;;7.80;99.90;;;-146.41;100.00;57768.22;5114107;27;20043;-67
2021/05/29 04:22:34;;;;;;;6.57;2.80;;;8.00;99.90;;;-146.41;100.00;57768.22;5112495;27;20088;-67
2021/05/29 04:25:09;;;;;;;8.82;2.95;;;8.10;99.90;;;-146.41;100.00;57768.22;5131248;27;20038;-67
2021/05/29 04:27:37;;;;;;;5.28;2.95;;;8.20;99.90;;;-146.41;100.00;57768.22;5118441;27;20044;-67
2021/05/29 04:30:08;;;;;;;5.20;2.08;;;8.30;99.90;;;-146.41;100.00;57768.22;5112371;27;20107;-67
2021/05/29 04:32:35;;;;;;;7.13;2.85;;;8.50;99.90;;;-146.41;100.00;57768.22;5129208;27;20051;-67
2021/05/29 04:35:05;;;;;;;5.78;2.20;;;8.60;99.90;;;-146.41;100.00;57768.22;5128835;27;20043;-67
2021/05/29 04:37:32;;;;;;;6.38;2.70;;;8.70;99.90;;;-146.41;100.00;57768.22;5111101;27;20088;-67
2021/05/29 04:40:01;;;;;;;6.38;1.92;;;8.80;99.90;;;-146.41;100.00;57768.22;5113740;27;20043;-67
2021/05/29 04:42:30;;;;;;;5.82;1.90;;;8.90;99.90;;;-146.41;100.00;57768.22;5118320;27;20051;-67
2021/05/29 04:44:57;;;;;;;3.88;2.08;;;9.00;99.90;;;-146.41;100.00;57768.22;5108175;27;20031;-67
2021/05/29 04:47:24;;;;;;;4.20;2.63;;;9.20;99.90;;;-146.41;100.00;57768.22;5129484;27;20043;-67
2021/05/29 04:49:51;;;;;;;6.75;2.65;;;9.30;99.90;;;-146.41;100.00;57768.22;5130011;27;20104;-67
2021/05/29 04:52:18;;;;;;;4.65;2.20;;;9.40;99.90;;;-146.41;100.00;57768.22;5131590;27;20047;-67
2021/05/29 04:54:45;;;;;;;4.78;2.10;;;9.50;99.90;;;-146.41;100.00;57768.22;5129950;27;20047;-67
2021/05/29 04:57:12;;;;;;;4.95;2.25;;;9.60;99.90;;;-146.41;100.00;57768.22;5128891;27;20496;-67
2021/05/29 04:59:39;;;;;;;6.63;2.67;;;9.70;99.90;;;-146.41;100.00;57768.22;5116722;27;20043;-66
2021/05/29 05:02:06;;;;;;;5.72;1.95;;;9.80;99.90;;;-146.41;100.00;57768.22;5129529;27;20092;-67
2021/05/29 05:04:33;;;;;;;4.25;2.10;;;9.90;99.90;;;-146.41;100.00;57768.22;5125020;27;20047;-67
2021/05/29 05:07:00;;;;;;;5.30;1.80;;;10.00;99.90;;;-146.41;100.00;57768.22;5130449;27;20039;-67
2021/05/29 05:09:27;;;;;;;4.88;2.15;;;10.10;99.90;;;-146.41;100.00;57768.22;5115948;27;20038;-68
2021/05/29 05:11:54;;;;;;;3.90;1.90;;;10.20;99.90;;;-146.41;100.00;57768.22;5125067;27;20043;-67
2021/05/29 05:14:21;;;;;;;7.10;2.10;;;10.30;99.90;;;-146.41;100.00;57768.22;5126465;27;20134;-67
2021/05/29 05:16:49;;;;;;;3.85;1.75;;;10.50;99.90;;;-146.41;100.00;57768.22;5129527;27;20387;-67
2021/05/29 05:19:16;;;;;;;5.80;2.10;;;10.50;99.90;;;-146.41;100.00;57768.22;5130742;27;20043;-67
2021/05/29 05:21:43;;;;;;;4.90;1.90;;;10.70;99.90;;;-146.41;100.00;57768.22;5130346;27;20099;-67
2021/05/29 05:24:10;;;;;;;5.05;1.80;;;10.70;99.90;;;-146.41;100.00;57768.22;5130016;27;20043;-67
2021/05/29 05:26:37;;;;;;;3.90;1.90;;;11.00;99.90;;;-146.41;100.00;57768.22;5125503;27;20072;-67
2021/05/29 05:29:05;;;;;;;2.88;1.70;;;11.10;99.90;;;-146.41;100.00;57768.22;5121515;27;20409;-67
2021/05/29 05:31:36;;;;;;;6.50;1.92;;;11.30;99.90;;;-146.41;100.00;57768.22;5130150;27;20051;-67
2021/05/29 05:34:10;;;;;;;10.55;1.83;;;11.30;99.90;;;-146.41;100.00;57768.22;5126467;27;20035;-67
2021/05/29 05:36:41;;;;;;;3.53;1.80;;;11.50;99.90;;;-146.41;100.00;57768.22;5127928;27;20062;-67
2021/05/29 05:39:13;;;;;;;7.22;1.80;;;11.60;99.90;;;-146.41;100.00;57768.22;5121485;27;20464;-67
2021/05/29 05:41:41;;;;;;;3.85;1.77;;;11.70;99.90;;;-146.41;100.00;57768.22;5107419;28;20131;-67
2021/05/29 05:44:09;;;;;;;2.63;1.58;;;11.90;99.90;;;-146.41;100.00;57768.22;5118420;28;20084;-67
2021/05/29 05:46:37;;;;;;;3.53;1.20;;;12.10;99.90;;;-146.41;100.00;57768.22;5128316;27;20171;-67
2021/05/29 05:49:05;;;;;;;6.43;1.52;;;12.30;99.90;;;-146.41;100.00;57768.22;5130496;27;20043;-67
2021/05/29 05:51:33;;;;;;;2.95;1.48;;;12.50;99.90;;;-146.41;100.00;57768.22;5106975;28;20047;-67
2021/05/29 05:54:02;;;;;;;4.88;1.60;;;12.60;99.90;;;-146.41;100.00;57768.22;5130389;28;20122;-67
2021/05/29 05:56:30;;;;;;;2.78;1.60;;;12.40;99.90;;;-146.41;100.00;57768.22;5109157;27;20051;-67
2021/05/29 05:58:58;;;;;;;4.85;1.60;;;12.30;99.90;;;-146.41;100.00;57768.22;5126391;27;20092;-67
2021/05/29 06:01:27;;;;;;;4.38;1.77;;;12.40;99.90;;;-146.41;100.00;57768.22;5114954;27;20040;-67
2021/05/29 06:03:55;;;;;;;6.32;1.92;;;12.50;99.90;;;-146.41;100.00;57768.22;5114309;27;20368;-67
2021/05/29 06:06:26;;;;;;;6.47;2.20;;;12.50;99.90;;;-146.41;100.00;57768.22;5131830;27;20031;-67
2021/05/29 06:08:54;;;;;;;3.35;1.90;;;12.50;99.90;;;-146.41;100.00;57768.22;5104569;27;20089;-67
2021/05/29 06:11:22;;;;;;;5.97;2.08;;;12.50;99.90;;;-146.41;100.00;57768.22;5132488;27;20407;-67
2021/05/29 06:19:19;;;;;;;2.75;1.60;;;12.70;99.90;;;-146.41;100.00;57768.22;5133839;27;20035;-67
2021/05/29 06:21:50;;;;;;;6.32;1.88;;;12.90;99.90;;;-146.41;100.00;57768.22;5122034;27;20123;-67
2021/05/29 06:24:25;;;;;;;3.00;1.65;;;13.00;99.90;;;-146.41;100.00;57768.22;5131325;27;20046;-67
2021/05/29 06:26:52;;;;;;;3.03;1.50;;;13.10;99.90;;;-146.41;100.00;57768.22;5131887;27;20049;-67
2021/05/29 06:29:19;;;;;;;3.72;1.52;;;13.10;99.90;;;-146.41;100.00;57768.22;5115467;27;20539;-67
2021/05/29 06:31:47;;;;;;;6.38;1.90;;;13.10;99.90;;;-146.41;100.00;57768.22;5125860;27;20057;-67
2021/05/29 06:34:16;;;;;;;4.20;1.98;;;13.00;99.90;;;-146.41;100.00;57768.22;5113409;27;20530;-67
2021/05/29 06:36:43;;;;;;;3.88;1.52;;;13.10;99.90;;;-146.41;100.00;57768.22;5113405;27;20510;-67
2021/05/29 06:39:11;;;;;;;4.72;2.08;;;13.10;99.90;;;-146.41;100.00;57768.22;5131729;27;20365;-67
2021/05/29 06:41:40;;;;;;;3.53;1.48;;;13.30;99.90;;;-146.41;100.00;57768.22;5133222;27;20440;-67
2021/05/29 06:44:09;;;;;;;4.55;1.70;;;13.40;99.90;;;-146.41;100.00;57768.22;5122838;27;20032;-67
2021/05/29 06:46:37;;;;;;;4.18;1.40;;;13.40;99.90;;;-146.41;100.00;57768.22;5077756;28;20040;-67
2021/05/29 06:49:06;;;;;;;3.15;1.52;;;13.50;99.90;;;-146.41;100.00;57768.22;5079338;28;20043;-67
2021/05/29 06:52:12;;;;;;;3.88;1.35;;;13.60;99.90;;;-146.41;100.00;57768.22;5120738;27;20070;-66
2021/05/29 07:00:00;;;;;;;2.85;1.30;;;14.10;99.90;;;-146.41;100.00;57768.22;5132338;27;20460;-66
2021/05/29 07:02:27;;;;;;;3.40;1.27;;;14.20;99.90;;;-146.41;100.00;57768.22;5112967;27;20696;-66
2021/05/29 07:04:54;;;;;;;3.22;1.00;;;14.50;99.90;;;-146.41;100.00;57768.22;5112942;27;20065;-66
2021/05/29 07:07:21;;;;;;;6.68;1.08;;;14.80;99.90;;;-146.41;100.00;57768.22;5132534;27;20050;-66
2021/05/29 07:09:48;;;;;;;2.08;1.02;;;14.80;99.90;;;-146.41;100.00;57768.22;5113787;27;20043;-65
2021/05/29 07:12:15;;;;;;;3.15;1.10;;;14.80;99.90;;;-146.41;100.00;57768.22;5132380;27;20163;-66
2021/05/29 07:14:43;;;;;;;2.45;0.90;;;15.00;99.90;;;-146.41;100.00;57768.22;5113046;27;20077;-66
2021/05/29 07:17:10;;;;;;;5.43;1.20;;;15.10;99.90;;;-146.41;100.00;57768.22;5131035;27;20039;-66
2021/05/29 07:19:37;;;;;;;3.47;1.13;;;15.30;99.90;;;-146.41;100.00;57768.22;5129070;27;20039;-66
2021/05/29 07:22:04;;;;;;;2.33;1.30;;;15.20;99.90;;;-146.41;100.00;57768.22;5132857;27;20051;-66
2021/05/29 07:24:31;;;;;;;4.35;1.13;;;15.30;99.90;;;-146.41;100.00;57768.22;5114300;27;20065;-66
2021/05/29 07:26:59;;;;;;;3.17;1.23;;;15.40;99.90;;;-146.41;100.00;57768.22;5128303;27;20050;-65
2021/05/29 07:29:27;;;;;;;3.90;1.17;;;15.50;99.90;;;-146.41;100.00;57768.22;5111225;27;20039;-66
2021/05/29 07:31:54;;;;;;;7.55;1.23;;;15.60;99.90;;;-146.41;100.00;57768.22;5125851;27;20115;-66
2021/05/29 07:34:23;;;;;;;2.72;1.02;;;15.70;99.90;;;-146.41;100.00;57768.22;5131563;27;20583;-66
2021/05/29 07:36:50;;;;;;;2.70;1.10;;;15.80;99.90;;;-146.41;100.00;57768.22;5130796;27;20148;-66
2021/05/29 07:39:17;;;;;;;6.85;1.30;;;15.80;99.90;;;-146.41;100.00;57768.22;5131343;27;20043;-67
2021/05/29 07:41:44;;;;;;;3.03;1.20;;;15.80;99.90;;;-146.41;100.00;57768.22;5129585;27;20088;-66
2021/05/29 07:44:11;;;;;;;3.60;1.27;;;15.90;99.90;;;-146.41;100.00;57768.22;5131554;27;20556;-66
2021/05/29 07:46:38;;;;;;;1.95;1.00;;;16.10;99.90;;;-146.41;100.00;57768.22;5126644;27;20082;-66
2021/05/29 07:49:07;;;;;;;3.78;1.02;;;16.20;99.90;;;-146.41;100.00;57768.22;5132559;27;20531;-66
2021/05/29 07:51:36;;;;;;;2.28;1.10;;;16.00;99.90;;;-146.41;100.00;57768.22;5113230;27;20103;-66
2021/05/29 07:54:06;;;;;;;2.78;0.90;;;16.10;99.90;;;-146.41;100.00;57768.22;5113225;27;21628;-66
2021/05/29 07:56:35;;;;;;;4.55;1.25;;;16.20;99.90;;;-146.41;100.00;57768.22;5130390;27;20509;-66
2021/05/29 07:59:07;;;;;;;4.13;1.35;;;16.30;99.90;;;-146.41;100.00;57768.22;5112481;27;20504;-66
2021/05/29 08:01:34;;;;;;;2.53;1.20;;;16.20;99.90;;;-146.41;100.00;57768.22;5129927;27;20039;-66
2021/05/29 08:04:02;;;;;;;4.13;1.10;;;16.40;99.90;;;-146.41;100.00;57768.22;5111031;27;20111;-67
2021/05/29 08:06:30;;;;;;;2.13;1.02;;;16.40;99.90;;;-146.41;100.00;57768.22;5111100;27;20108;-66
2021/05/29 08:08:57;;;;;;;2.10;0.80;;;16.60;99.90;;;-146.41;100.00;57768.22;5110952;27;20112;-66
2021/05/29 08:11:25;;;;;;;3.83;1.35;;;16.80;99.90;;;-146.41;100.00;57768.22;5126620;27;20103;-67
2021/05/29 08:13:55;;;;;;;3.75;1.10;;;17.20;99.90;;;-146.41;100.00;57768.22;5124185;27;20044;-67
2021/05/29 08:16:24;;;;;;;3.05;0.88;;;17.10;99.90;;;-146.41;100.00;57768.22;5101488;27;20091;-67
2021/05/29 08:18:53;;;;;;;2.47;0.98;;;17.40;99.90;;;-146.41;100.00;57768.22;5100246;28;20082;-67
2021/05/29 08:21:21;;;;;;;3.17;0.90;;;18.00;99.90;;;-146.41;100.00;57768.22;5105375;27;20530;-67
2021/05/29 08:23:49;;;;;;;2.40;0.98;;;18.20;99.90;;;-146.41;100.00;57768.22;5112379;27;20123;-66
2021/05/29 08:26:16;;;;;;;3.45;0.90;;;18.50;99.90;;;-146.41;100.00;57768.22;5129171;27;20547;-66
2021/05/29 08:28:44;;;;;;;2.58;0.90;;;18.60;99.90;;;-146.41;100.00;57768.22;5129398;27;20038;-67
2021/05/29 08:31:13;;;;;;;5.15;1.20;;;18.70;99.90;;;-146.41;100.00;57768.22;5129318;27;20400;-66
2021/05/29 08:33:40;;;;;;;2.30;0.60;;;18.70;99.90;;;-146.41;100.00;57768.22;5129815;27;20068;-67
2021/05/29 08:36:08;;;;;;;2.10;1.05;;;18.80;99.90;;;-146.41;100.00;57768.22;5126833;27;20039;-67
2021/05/29 08:38:36;;;;;;;3.65;0.80;;;18.80;99.90;;;-146.41;100.00;57768.22;5131722;27;20045;-67
2021/05/29 08:41:04;;;;;;;2.20;1.00;;;18.90;99.90;;;-146.41;100.00;57768.22;5127762;27;20066;-67
2021/05/29 08:43:32;;;;;;;3.60;0.80;;;18.90;99.90;;;-146.41;100.00;57768.22;5130413;27;20067;-67
2021/05/29 08:45:59;;;;;;;1.70;0.73;;;19.00;99.90;;;-146.41;100.00;57768.22;5110892;27;20047;-67
2021/05/29 08:48:26;;;;;;;5.03;0.98;;;19.30;99.90;;;-146.41;100.00;57768.22;5125731;27;20065;-67
2021/05/29 08:53:49;;;;;;;1.83;0.80;;;19.60;99.90;;;-146.41;100.00;57768.22;5130126;27;20059;-67
2021/05/29 08:56:19;;;;;;;33.50;2.08;;;19.90;99.90;;;-146.41;100.00;57768.22;5127451;27;20121;-68
2021/05/29 08:58:46;;;;;;;2.50;0.90;;;19.60;99.90;;;-146.41;100.00;57768.22;5110885;27;20108;-68
2021/05/29 09:01:13;;;;;;;2.05;0.70;;;20.20;99.50;;;-146.41;100.00;57768.22;5128872;27;20092;-67
2021/05/29 09:03:58;;;;;;;2.22;0.68;;;20.20;98.20;;;-146.41;100.00;57768.22;5126480;27;20039;-67
2021/05/29 09:06:31;;;;;;;3.20;0.80;;;20.90;97.10;;;-146.41;100.00;57768.22;5100733;27;20438;-67
2021/05/29 09:09:00;;;;;;;2.15;0.60;;;21.00;96.60;;;-146.41;100.00;57768.22;5118750;27;20505;-67
2021/05/29 09:11:50;;;;;;;1.80;0.60;;;21.20;97.60;;;-146.41;100.00;57768.22;5112162;27;20043;-66
2021/05/29 09:14:32;;;;;;;2.42;0.70;;;21.90;96.50;;;-146.41;100.00;57768.22;5129459;27;20043;-67
2021/05/29 09:16:59;;;;;;;2.15;0.93;;;22.20;95.30;;;-146.41;100.00;57768.22;5107627;27;20047;-67
2021/05/29 09:19:26;;;;;;;2.38;0.70;;;21.40;94.20;;;-146.41;100.00;57768.22;5127668;27;20104;-67
2021/05/29 09:21:53;;;;;;;1.85;0.80;;;21.30;94.50;;;-146.41;100.00;57768.22;5123745;27;20043;-67
2021/05/29 09:24:21;;;;;;;1.83;0.50;;;21.30;94.70;;;-146.41;100.00;57768.22;5130536;27;20035;-67
2021/05/29 09:26:55;;;;;;;2.15;0.82;;;21.30;94.40;;;-146.41;100.00;57768.22;5129341;27;20042;-66
2021/05/29 09:29:25;;;;;;;1.58;0.80;;;20.90;93.60;;;-146.41;100.00;57768.22;5127634;27;20055;-67
2021/05/29 09:32:07;;;;;;;1.90;0.70;;;20.70;92.80;;;-146.41;100.00;57768.22;5109815;28;20067;-66
2021/05/29 09:34:53;;;;;;;1.33;0.55;;;21.00;93.70;;;-146.41;100.00;57768.22;5111732;27;20517;-67
2021/05/29 09:37:27;;;;;;;1.95;0.60;;;21.00;92.50;;;-146.41;100.00;57768.22;5128201;27;20105;-67
2021/05/29 09:40:00;;;;;;;3.45;0.60;;;20.60;94.60;;;-146.41;100.00;57768.22;5124666;27;20370;-67
2021/05/29 09:42:32;;;;;;;2.00;0.50;;;21.40;93.00;;;-146.41;100.00;57768.22;5128580;27;20058;-66
2021/05/29 09:45:17;;;;;;;1.10;0.40;;;21.50;91.50;;;-146.41;100.00;57768.22;5109507;27;20655;-67
2021/05/29 09:48:17;;;;;;;1.55;0.45;;;21.10;91.70;;;-146.41;100.00;57768.22;5128531;27;20043;-66
2021/05/29 09:51:12;;;;;;;1.90;0.50;;;20.90;91.70;;;-146.41;100.00;57768.22;5123334;27;20043;-66
2021/05/29 09:53:43;;;;;;;4.60;0.68;;;21.60;91.80;;;-146.41;100.00;57768.22;5097563;28;20054;-67
2021/05/29 09:56:27;;;;;;;1.50;0.45;;;20.60;91.80;;;-146.41;100.00;57768.22;5103296;28;20058;-67
2021/05/29 09:59:09;;;;;;;4.40;0.70;;;21.30;92.90;;;-146.41;100.00;57768.22;5122570;27;20039;-67
2021/05/29 10:01:47;;;;;;;4.78;1.10;;;21.80;91.90;;;-146.41;100.00;57768.22;5127206;28;20039;-67
2021/05/29 10:04:37;;;;;;;1.40;0.50;;;22.30;91.00;;;-146.41;100.00;57768.22;5106273;28;20187;-67
2021/05/29 10:07:07;;;;;;;5.00;1.00;;;22.10;91.30;;;-146.41;100.00;57768.22;5122134;28;20043;-67
2021/05/29 10:09:34;;;;;;;1.73;0.70;;;21.60;90.90;;;-146.41;100.00;57768.22;5118306;28;20055;-67
2021/05/29 10:12:04;;;;;;;2.25;0.68;;;21.80;92.00;;;-146.41;100.00;57768.22;5114277;28;20532;-67
2021/05/29 10:14:32;;;;;;;2.28;0.60;;;22.10;90.60;;;-146.41;100.00;57768.22;5127829;28;20099;-67
2021/05/29 10:17:08;;;;;;;4.38;0.65;;;22.80;89.50;;;-146.41;100.00;57768.22;5108385;28;20060;-67
2021/05/29 10:19:39;;;;;;;3.72;0.65;;;23.20;90.00;;;-146.41;100.00;57768.22;5108415;28;20140;-66
2021/05/29 10:22:15;;;;;;;1.90;0.52;;;22.70;90.30;;;-146.41;100.00;57768.22;5108445;28;20039;-67
2021/05/29 10:24:44;;;;;;;5.90;0.73;;;22.00;91.00;;;-146.41;100.00;57768.22;5127310;28;20105;-67
2021/05/29 10:27:23;;;;;;;3.10;0.63;;;21.90;90.10;;;-146.41;100.00;57768.22;5127854;28;20046;-67